sensor_id;sensor_type;location;lat;lon;timestamp;pressure;altitude;pressure_sealevel;temperature;humidity
9277;BME280;4676;42.678;23.244;2023-03-04T00:01:20;94080.34;;;5.25;nan
9277;BME280;4676;42.678;23.244;2023-03-04T00:03:48;94071.25;;;5.19;nan
9277;BME280;4676;42.678;23.244;2023-03-04T00:06:15;94090.56;;;5.17;nan
9277;BME280;4676;42.678;23.244;2023-03-04T00:08:42;94078.66;;;5.25;nan
9277;BME280;4676;42.678;23.244;2023-03-04T00:11:08;94086.19;;;5.25;nan
9277;BME280;4676;42.678;23.244;2023-03-04T00:13:35;94075.16;;;5.32;nan
9277;BME280;4676;42.678;23.244;2023-03-04T00:16:02;94076.81;;;5.33;nan
9277;BME280;4676;42.678;23.244;2023-03-04T00:18:29;94075.06;;;5.37;nan
9277;BME280;4676;42.678;23.244;2023-03-04T00:23:24;94070.97;;;5.31;nan
9277;BME280;4676;42.678;23.244;2023-03-04T00:25:51;94062.19;;;5.12;nan
9277;BME280;4676;42.678;23.244;2023-03-04T00:28:17;94061.28;;;5.15;nan
9277;BME280;4676;42.678;23.244;2023-03-04T00:30:44;94002.56;;;4.80;nan
9277;BME280;4676;42.678;23.244;2023-03-04T00:33:11;94069.91;;;5.03;nan
9277;BME280;4676;42.678;23.244;2023-03-04T00:35:37;94062.47;;;4.97;nan
9277;BME280;4676;42.678;23.244;2023-03-04T00:38:04;94062.53;;;4.95;nan
9277;BME280;4676;42.678;23.244;2023-03-04T00:40:32;94040.09;;;4.86;nan
9277;BME280;4676;42.678;23.244;2023-03-04T00:42:59;94065.81;;;4.99;nan
9277;BME280;4676;42.678;23.244;2023-03-04T00:45:26;94065.75;;;5.00;nan
9277;BME280;4676;42.678;23.244;2023-03-04T00:47:52;94066.72;;;4.95;nan
9277;BME280;4676;42.678;23.244;2023-03-04T00:50:19;94066.66;;;4.96;nan
9277;BME280;4676;42.678;23.244;2023-03-04T00:52:46;94067.44;;;5.00;nan
9277;BME280;4676;42.678;23.244;2023-03-04T00:55:13;94064.19;;;4.95;nan
9277;BME280;4676;42.678;23.244;2023-03-04T00:57:41;94065.88;;;4.94;nan
9277;BME280;4676;42.678;23.244;2023-03-04T01:00:09;94066.66;;;4.96;nan
9277;BME280;4676;42.678;23.244;2023-03-04T01:02:35;94057.34;;;5.03;nan
9277;BME280;4676;42.678;23.244;2023-03-04T01:05:03;94058.19;;;5.02;nan
9277;BME280;4676;42.678;23.244;2023-03-04T01:07:29;94053.66;;;5.19;nan
9277;BME280;4676;42.678;23.244;2023-03-04T01:09:56;94043.81;;;5.10;nan
9277;BME280;4676;42.678;23.244;2023-03-04T01:12:23;94053.91;;;5.07;nan
9277;BME280;4676;42.678;23.244;2023-03-04T01:14:51;94051.44;;;5.04;nan
9277;BME280;4676;42.678;23.244;2023-03-04T01:17:17;94047.25;;;5.04;nan
9277;BME280;4676;42.678;23.244;2023-03-04T01:19:44;94055.69;;;5.02;nan
9277;BME280;4676;42.678;23.244;2023-03-04T01:22:11;94055.72;;;5.00;nan
9277;BME280;4676;42.678;23.244;2023-03-04T01:24:39;94046.50;;;5.01;nan
9277;BME280;4676;42.678;23.244;2023-03-04T01:27:06;94043.16;;;5.00;nan
9277;BME280;4676;42.678;23.244;2023-03-04T01:29:32;94052.53;;;4.92;nan
9277;BME280;4676;42.678;23.244;2023-03-04T01:32:00;94045.03;;;4.91;nan
9277;BME280;4676;42.678;23.244;2023-03-04T01:34:27;94033.47;;;4.82;nan
9277;BME280;4676;42.678;23.244;2023-03-04T01:36:54;94042.53;;;4.89;nan
9277;BME280;4676;42.678;23.244;2023-03-04T01:39:21;94039.25;;;4.86;nan
9277;BME280;4676;42.678;23.244;2023-03-04T01:41:48;94034.22;;;4.86;nan
9277;BME280;4676;42.678;23.244;2023-03-04T01:44:14;94035.19;;;4.79;nan
9277;BME280;4676;42.678;23.244;2023-03-04T01:46:43;94031.97;;;4.72;nan
9277;BME280;4676;42.678;23.244;2023-03-04T01:49:14;94029.41;;;4.75;nan
9277;BME280;4676;42.678;23.244;2023-03-04T01:51:43;94026.09;;;4.75;nan
9277;BME280;4676;42.678;23.244;2023-03-04T01:54:11;94028.56;;;4.78;nan
9277;BME280;4676;42.678;23.244;2023-03-04T01:56:38;94029.41;;;4.77;nan
9277;BME280;4676;42.678;23.244;2023-03-04T01:59:10;93998.06;;;4.53;nan
9277;BME280;4676;42.678;23.244;2023-03-04T02:01:38;94012.03;;;4.65;nan
9277;BME280;4676;42.678;23.244;2023-03-04T02:04:06;94012.03;;;4.66;nan
9277;BME280;4676;42.678;23.244;2023-03-04T02:06:35;94025.38;;;4.68;nan
9277;BME280;4676;42.678;23.244;2023-03-04T02:09:02;94021.28;;;4.63;nan
9277;BME280;4676;42.678;23.244;2023-03-04T02:11:30;94009.66;;;4.59;nan
9277;BME280;4676;42.678;23.244;2023-03-04T02:13:57;94012.88;;;4.65;nan
9277;BME280;4676;42.678;23.244;2023-03-04T02:16:24;94019.47;;;4.71;nan
9277;BME280;4676;42.678;23.244;2023-03-04T02:18:51;94011.13;;;4.69;nan
9277;BME280;4676;42.678;23.244;2023-03-04T02:21:22;94011.88;;;4.74;nan
9277;BME280;4676;42.678;23.244;2023-03-04T02:23:59;94010.22;;;4.73;nan
9277;BME280;4676;42.678;23.244;2023-03-04T02:26:30;94007.66;;;4.76;nan
9277;BME280;4676;42.678;23.244;2023-03-04T02:29:00;94010.94;;;4.79;nan
9277;BME280;4676;42.678;23.244;2023-03-04T02:31:30;94016.91;;;4.72;nan
9277;BME280;4676;42.678;23.244;2023-03-04T02:34:00;94002.78;;;4.68;nan
9277;BME280;4676;42.678;23.244;2023-03-04T02:36:28;94010.28;;;4.71;nan
9277;BME280;4676;42.678;23.244;2023-03-04T02:39:00;94012.81;;;4.68;nan
9277;BME280;4676;42.678;23.244;2023-03-04T02:41:29;94003.53;;;4.72;nan
9277;BME280;4676;42.678;23.244;2023-03-04T02:43:56;94000.25;;;4.70;nan
9277;BME280;4676;42.678;23.244;2023-03-04T02:46:23;93997.81;;;4.67;nan
9277;BME280;4676;42.678;23.244;2023-03-04T02:48:50;93995.44;;;4.58;nan
9277;BME280;4676;42.678;23.244;2023-03-04T02:51:18;94002.31;;;4.49;nan
9277;BME280;4676;42.678;23.244;2023-03-04T02:53:45;93992.34;;;4.45;nan
9277;BME280;4676;42.678;23.244;2023-03-04T02:56:12;93989.28;;;4.31;nan
9277;BME280;4676;42.678;23.244;2023-03-04T02:58:40;94004.31;;;4.31;nan
9277;BME280;4676;42.678;23.244;2023-03-04T03:01:06;93991.00;;;4.27;nan
9277;BME280;4676;42.678;23.244;2023-03-04T03:03:33;93993.63;;;4.21;nan
9277;BME280;4676;42.678;23.244;2023-03-04T03:06:00;93994.41;;;4.23;nan
9277;BME280;4676;42.678;23.244;2023-03-04T03:08:27;93988.66;;;4.18;nan
9277;BME280;4676;42.678;23.244;2023-03-04T03:10:53;93995.25;;;4.22;nan
9277;BME280;4676;42.678;23.244;2023-03-04T03:13:20;94003.00;;;4.12;nan
9277;BME280;4676;42.678;23.244;2023-03-04T03:15:48;93996.38;;;4.06;nan
9277;BME280;4676;42.678;23.244;2023-03-04T03:18:15;93988.81;;;4.09;nan
9277;BME280;4676;42.678;23.244;2023-03-04T03:20:41;93989.69;;;4.08;nan
9277;BME280;4676;42.678;23.244;2023-03-04T03:23:08;93989.66;;;4.10;nan
9277;BME280;4676;42.678;23.244;2023-03-04T03:25:35;93974.91;;;3.93;nan
9277;BME280;4676;42.678;23.244;2023-03-04T03:28:02;93992.28;;;4.02;nan
9277;BME280;4676;42.678;23.244;2023-03-04T03:30:29;93993.31;;;3.90;nan
9277;BME280;4676;42.678;23.244;2023-03-04T03:32:57;93988.38;;;3.84;nan
9277;BME280;4676;42.678;23.244;2023-03-04T03:35:23;93996.03;;;3.77;nan
9277;BME280;4676;42.678;23.244;2023-03-04T03:37:50;93918.25;;;3.31;nan
9277;BME280;4676;42.678;23.244;2023-03-04T03:40:17;93983.66;;;3.66;nan
9277;BME280;4676;42.678;23.244;2023-03-04T03:42:44;93982.09;;;3.61;nan
9277;BME280;4676;42.678;23.244;2023-03-04T03:45:10;93981.19;;;3.65;nan
9277;BME280;4676;42.678;23.244;2023-03-04T03:47:37;93982.00;;;3.67;nan
9277;BME280;4676;42.678;23.244;2023-03-04T03:50:06;93989.59;;;3.62;nan
9277;BME280;4676;42.678;23.244;2023-03-04T03:52:33;93985.56;;;3.52;nan
9277;BME280;4676;42.678;23.244;2023-03-04T03:54:59;93980.53;;;3.52;nan
9277;BME280;4676;42.678;23.244;2023-03-04T03:57:27;93982.28;;;3.48;nan
9277;BME280;4676;42.678;23.244;2023-03-04T03:59:53;93982.28;;;3.48;nan
9277;BME280;4676;42.678;23.244;2023-03-04T04:02:20;93983.22;;;3.41;nan
9277;BME280;4676;42.678;23.244;2023-03-04T04:04:47;93969.94;;;3.35;nan
9277;BME280;4676;42.678;23.244;2023-03-04T04:07:15;93977.53;;;3.32;nan
9277;BME280;4676;42.678;23.244;2023-03-04T04:09:42;93972.50;;;3.32;nan
9277;BME280;4676;42.678;23.244;2023-03-04T04:12:10;93972.56;;;3.30;nan
9277;BME280;4676;42.678;23.244;2023-03-04T04:14:39;93970.13;;;3.24;nan
9277;BME280;4676;42.678;23.244;2023-03-04T04:17:05;93968.38;;;3.29;nan
9277;BME280;4676;42.678;23.244;2023-03-04T04:19:32;93971.03;;;3.19;nan
9277;BME280;4676;42.678;23.244;2023-03-04T04:21:59;93971.09;;;3.16;nan
9277;BME280;4676;42.678;23.244;2023-03-04T04:24:27;93965.28;;;3.12;nan
9277;BME280;4676;42.678;23.244;2023-03-04T04:26:54;93977.03;;;3.09;nan
9277;BME280;4676;42.678;23.244;2023-03-04T04:29:21;93972.06;;;3.04;nan
9277;BME280;4676;42.678;23.244;2023-03-04T04:31:48;93978.84;;;2.96;nan
9277;BME280;4676;42.678;23.244;2023-03-04T04:34:15;93973.78;;;3.02;nan
9277;BME280;4676;42.678;23.244;2023-03-04T04:36:42;93966.41;;;2.91;nan
9277;BME280;4676;42.678;23.244;2023-03-04T04:39:08;93969.06;;;2.79;nan
9277;BME280;4676;42.678;23.244;2023-03-04T04:41:40;93977.34;;;2.83;nan
9277;BME280;4676;42.678;23.244;2023-03-04T04:44:07;93968.31;;;2.74;nan
9277;BME280;4676;42.678;23.244;2023-03-04T04:46:35;93972.53;;;2.68;nan
9277;BME280;4676;42.678;23.244;2023-03-04T04:49:02;93972.63;;;2.62;nan
9277;BME280;4676;42.678;23.244;2023-03-04T04:51:29;93965.16;;;2.60;nan
9277;BME280;4676;42.678;23.244;2023-03-04T04:53:57;93959.34;;;2.53;nan
9277;BME280;4676;42.678;23.244;2023-03-04T04:56:25;93964.28;;;2.63;nan
9277;BME280;4676;42.678;23.244;2023-03-04T04:58:55;93967.66;;;2.57;nan
9277;BME280;4676;42.678;23.244;2023-03-04T05:01:23;93979.41;;;2.52;nan
9277;BME280;4676;42.678;23.244;2023-03-04T05:03:51;93983.69;;;2.41;nan
9277;BME280;4676;42.678;23.244;2023-03-04T05:06:20;93977.09;;;2.35;nan
9277;BME280;4676;42.678;23.244;2023-03-04T05:08:47;93990.16;;;2.57;nan
9277;BME280;4676;42.678;23.244;2023-03-04T05:11:14;93989.38;;;2.55;nan
9277;BME280;4676;42.678;23.244;2023-03-04T05:13:41;93991.91;;;2.50;nan
9277;BME280;4676;42.678;23.244;2023-03-04T05:16:09;93996.03;;;2.56;nan
9277;BME280;4676;42.678;23.244;2023-03-04T05:18:37;94000.22;;;2.56;nan
9277;BME280;4676;42.678;23.244;2023-03-04T05:21:04;94001.84;;;2.60;nan
9277;BME280;4676;42.678;23.244;2023-03-04T05:23:34;94000.00;;;2.72;nan
9277;BME280;4676;42.678;23.244;2023-03-04T05:26:02;94005.03;;;2.71;nan
9277;BME280;4676;42.678;23.244;2023-03-04T05:28:29;94000.78;;;2.76;nan
9277;BME280;4676;42.678;23.244;2023-03-04T05:30:55;94015.75;;;2.79;nan
9277;BME280;4676;42.678;23.244;2023-03-04T05:33:24;94006.50;;;2.85;nan
9277;BME280;4676;42.678;23.244;2023-03-04T05:35:50;94006.50;;;2.88;nan
9277;BME280;4676;42.678;23.244;2023-03-04T05:38:19;94008.78;;;3.05;nan
9277;BME280;4676;42.678;23.244;2023-03-04T05:40:47;93954.88;;;2.78;nan
9277;BME280;4676;42.678;23.244;2023-03-04T05:43:14;94010.97;;;3.28;nan
9277;BME280;4676;42.678;23.244;2023-03-04T05:45:41;94012.53;;;3.35;nan
9277;BME280;4676;42.678;23.244;2023-03-04T05:48:08;94005.69;;;3.46;nan
9277;BME280;4676;42.678;23.244;2023-03-04T05:50:36;94018.00;;;3.61;nan
9277;BME280;4676;42.678;23.244;2023-03-04T05:53:03;94013.56;;;3.77;nan
9277;BME280;4676;42.678;23.244;2023-03-04T05:55:29;94016.84;;;3.82;nan
9277;BME280;4676;42.678;23.244;2023-03-04T05:57:56;94018.22;;;3.99;nan
9277;BME280;4676;42.678;23.244;2023-03-04T06:00:24;94018.00;;;4.15;nan
9277;BME280;4676;42.678;23.244;2023-03-04T06:02:50;94023.53;;;4.32;nan
9277;BME280;4676;42.678;23.244;2023-03-04T06:05:18;94020.19;;;4.31;nan
9277;BME280;4676;42.678;23.244;2023-03-04T06:07:46;93987.00;;;4.17;nan
9277;BME280;4676;42.678;23.244;2023-03-04T06:10:16;94029.19;;;4.43;nan
9277;BME280;4676;42.678;23.244;2023-03-04T06:12:43;93957.94;;;4.07;nan
9277;BME280;4676;42.678;23.244;2023-03-04T06:15:10;94024.63;;;4.63;nan
9277;BME280;4676;42.678;23.244;2023-03-04T06:17:38;94008.75;;;4.63;nan
9277;BME280;4676;42.678;23.244;2023-03-04T06:20:06;94037.88;;;4.71;nan
9277;BME280;4676;42.678;23.244;2023-03-04T06:22:33;94042.06;;;4.71;nan
9277;BME280;4676;42.678;23.244;2023-03-04T06:25:01;94039.31;;;4.83;nan
9277;BME280;4676;42.678;23.244;2023-03-04T06:27:28;94028.28;;;4.91;nan
9277;BME280;4676;42.678;23.244;2023-03-04T06:29:54;94035.47;;;5.08;nan
9277;BME280;4676;42.678;23.244;2023-03-04T06:32:21;94039.38;;;5.21;nan
9277;BME280;4676;42.678;23.244;2023-03-04T06:34:48;94043.34;;;5.33;nan
9277;BME280;4676;42.678;23.244;2023-03-04T06:37:15;94039.91;;;5.37;nan
9277;BME280;4676;42.678;23.244;2023-03-04T06:39:41;94040.69;;;5.39;nan
9277;BME280;4676;42.678;23.244;2023-03-04T06:42:09;94043.56;;;5.22;nan
9277;BME280;4676;42.678;23.244;2023-03-04T06:44:36;94047.09;;;5.14;nan
9277;BME280;4676;42.678;23.244;2023-03-04T06:47:03;94043.47;;;5.25;nan
9277;BME280;4676;42.678;23.244;2023-03-04T06:49:30;94049.19;;;5.32;nan
9277;BME280;4676;42.678;23.244;2023-03-04T06:51:56;94051.53;;;5.41;nan
9277;BME280;4676;42.678;23.244;2023-03-04T06:54:23;94038.97;;;5.41;nan
9277;BME280;4676;42.678;23.244;2023-03-04T06:56:50;94028.16;;;5.37;nan
9277;BME280;4676;42.678;23.244;2023-03-04T06:59:18;94050.63;;;5.45;nan
9277;BME280;4676;42.678;23.244;2023-03-04T07:01:44;94059.69;;;5.52;nan
9277;BME280;4676;42.678;23.244;2023-03-04T07:04:12;94053.06;;;5.48;nan
9277;BME280;4676;42.678;23.244;2023-03-04T07:06:39;94053.31;;;5.36;nan
9277;BME280;4676;42.678;23.244;2023-03-04T07:09:06;94053.47;;;5.28;nan
9277;BME280;4676;42.678;23.244;2023-03-04T07:11:33;94057.00;;;5.20;nan
9277;BME280;4676;42.678;23.244;2023-03-04T07:13:59;94057.66;;;5.29;nan
9277;BME280;4676;42.678;23.244;2023-03-04T07:16:28;94058.38;;;5.34;nan
9277;BME280;4676;42.678;23.244;2023-03-04T07:18:54;94060.84;;;5.36;nan
9277;BME280;4676;42.678;23.244;2023-03-04T07:21:21;94059.84;;;5.44;nan
9277;BME280;4676;42.678;23.244;2023-03-04T07:23:48;94069.97;;;5.40;nan
9277;BME280;4676;42.678;23.244;2023-03-04T07:26:15;94051.88;;;5.24;nan
9277;BME280;4676;42.678;23.244;2023-03-04T07:28:42;94061.78;;;5.32;nan
9277;BME280;4676;42.678;23.244;2023-03-04T07:31:18;94068.53;;;5.30;nan
9277;BME280;4676;42.678;23.244;2023-03-04T07:33:47;94065.19;;;5.28;nan
9277;BME280;4676;42.678;23.244;2023-03-04T07:36:14;94068.44;;;5.34;nan
9277;BME280;4676;42.678;23.244;2023-03-04T07:38:42;94047.22;;;5.47;nan
9277;BME280;4676;42.678;23.244;2023-03-04T07:41:09;94057.72;;;5.65;nan
9277;BME280;4676;42.678;23.244;2023-03-04T07:43:36;94057.03;;;5.58;nan
9277;BME280;4676;42.678;23.244;2023-03-04T07:46:03;94064.47;;;5.63;nan
9277;BME280;4676;42.678;23.244;2023-03-04T07:48:30;94056.13;;;5.62;nan
9277;BME280;4676;42.678;23.244;2023-03-04T07:51:06;94060.00;;;5.75;nan
9277;BME280;4676;42.678;23.244;2023-03-04T07:53:34;94062.28;;;5.84;nan
9277;BME280;4676;42.678;23.244;2023-03-04T07:56:01;94066.44;;;5.88;nan
9277;BME280;4676;42.678;23.244;2023-03-04T07:58:28;94042.97;;;5.88;nan
9277;BME280;4676;42.678;23.244;2023-03-04T08:00:55;94029.72;;;5.80;nan
9277;BME280;4676;42.678;23.244;2023-03-04T08:03:22;94062.72;;;6.05;nan
9277;BME280;4676;42.678;23.244;2023-03-04T08:05:49;94055.00;;;6.12;nan
9277;BME280;4676;42.678;23.244;2023-03-04T08:08:17;94055.28;;;6.00;nan
9277;BME280;4676;42.678;23.244;2023-03-04T08:10:43;94056.50;;;5.82;nan
9277;BME280;4676;42.678;23.244;2023-03-04T08:13:10;94057.56;;;5.71;nan
9277;BME280;4676;42.678;23.244;2023-03-04T08:15:40;94055.72;;;5.79;nan
9277;BME280;4676;42.678;23.244;2023-03-04T08:18:06;94051.63;;;5.75;nan
9277;BME280;4676;42.678;23.244;2023-03-04T08:20:33;94054.81;;;5.81;nan
9277;BME280;4676;42.678;23.244;2023-03-04T08:23:00;94058.09;;;5.86;nan
9277;BME280;4676;42.678;23.244;2023-03-04T08:25:28;94059.69;;;5.90;nan
9277;BME280;4676;42.678;23.244;2023-03-04T08:27:55;94057.28;;;5.84;nan
9277;BME280;4676;42.678;23.244;2023-03-04T08:30:22;94058.81;;;5.91;nan
9277;BME280;4676;42.678;23.244;2023-03-04T08:32:48;94056.47;;;5.84;nan
9277;BME280;4676;42.678;23.244;2023-03-04T08:35:15;94031.41;;;5.79;nan
9277;BME280;4676;42.678;23.244;2023-03-04T08:37:42;94055.28;;;6.00;nan
9277;BME280;4676;42.678;23.244;2023-03-04T08:40:11;94056.03;;;6.03;nan
9277;BME280;4676;42.678;23.244;2023-03-04T08:42:40;94049.25;;;6.06;nan
9277;BME280;4676;42.678;23.244;2023-03-04T08:45:07;94049.38;;;6.01;nan
9277;BME280;4676;42.678;23.244;2023-03-04T08:47:34;94054.84;;;6.18;nan
9277;BME280;4676;42.678;23.244;2023-03-04T08:50:01;94045.53;;;6.22;nan
9277;BME280;4676;42.678;23.244;2023-03-04T08:52:28;94047.59;;;6.40;nan
9277;BME280;4676;42.678;23.244;2023-03-04T08:54:55;94047.66;;;6.71;nan
9277;BME280;4676;42.678;23.244;2023-03-04T08:57:22;94050.91;;;6.74;nan
9277;BME280;4676;42.678;23.244;2023-03-04T08:59:50;94041.25;;;6.90;nan
9277;BME280;4676;42.678;23.244;2023-03-04T09:02:17;94036.81;;;6.99;nan
9277;BME280;4676;42.678;23.244;2023-03-04T09:04:44;93980.78;;;6.61;nan
9277;BME280;4676;42.678;23.244;2023-03-04T09:07:11;94036.66;;;7.04;nan
9277;BME280;4676;42.678;23.244;2023-03-04T09:09:38;94039.97;;;7.06;nan
9277;BME280;4676;42.678;23.244;2023-03-04T09:12:06;94038.47;;;7.28;nan
9277;BME280;4676;42.678;23.244;2023-03-04T09:14:33;94041.19;;;7.22;nan
9277;BME280;4676;42.678;23.244;2023-03-04T09:17:01;94022.13;;;7.14;nan
9277;BME280;4676;42.678;23.244;2023-03-04T09:19:28;94023.78;;;7.42;nan
9277;BME280;4676;42.678;23.244;2023-03-04T09:21:56;94028.59;;;7.78;nan
9277;BME280;4676;42.678;23.244;2023-03-04T09:24:23;94023.00;;;7.96;nan
9277;BME280;4676;42.678;23.244;2023-03-04T09:26:50;94024.53;;;8.01;nan
9277;BME280;4676;42.678;23.244;2023-03-04T09:29:17;94027.44;;;8.16;nan
9277;BME280;4676;42.678;23.244;2023-03-04T09:31:44;94021.94;;;8.03;nan
9277;BME280;4676;42.678;23.244;2023-03-04T09:34:12;94026.13;;;8.04;nan
9277;BME280;4676;42.678;23.244;2023-03-04T09:36:39;94019.41;;;7.77;nan
9277;BME280;4676;42.678;23.244;2023-03-04T09:39:06;94015.94;;;7.81;nan
9277;BME280;4676;42.678;23.244;2023-03-04T09:41:36;94010.78;;;7.84;nan
9277;BME280;4676;42.678;23.244;2023-03-04T09:44:10;94008.78;;;7.93;nan
9277;BME280;4676;42.678;23.244;2023-03-04T09:46:39;94020.72;;;7.88;nan
9277;BME280;4676;42.678;23.244;2023-03-04T09:49:09;94008.13;;;7.61;nan
9277;BME280;4676;42.678;23.244;2023-03-04T09:51:46;94011.19;;;7.42;nan
9277;BME280;4676;42.678;23.244;2023-03-04T09:54:19;94010.22;;;7.46;nan
9277;BME280;4676;42.678;23.244;2023-03-04T09:56:52;94007.72;;;7.46;nan
9277;BME280;4676;42.678;23.244;2023-03-04T09:59:25;94005.38;;;7.40;nan
9277;BME280;4676;42.678;23.244;2023-03-04T10:01:56;94004.50;;;7.41;nan
9277;BME280;4676;42.678;23.244;2023-03-04T10:04:30;93998.56;;;7.42;nan
9277;BME280;4676;42.678;23.244;2023-03-04T10:07:01;93998.13;;;7.30;nan
9277;BME280;4676;42.678;23.244;2023-03-04T10:09:31;93995.31;;;7.39;nan
9277;BME280;4676;42.678;23.244;2023-03-04T10:12:08;93979.47;;;7.63;nan
9277;BME280;4676;42.678;23.244;2023-03-04T10:14:39;93993.53;;;7.98;nan
9277;BME280;4676;42.678;23.244;2023-03-04T10:17:13;93988.31;;;8.02;nan
9277;BME280;4676;42.678;23.244;2023-03-04T10:19:51;93982.53;;;7.99;nan
9277;BME280;4676;42.678;23.244;2023-03-04T10:22:26;93989.34;;;7.97;nan
9277;BME280;4676;42.678;23.244;2023-03-04T10:24:57;93982.50;;;8.00;nan
9277;BME280;4676;42.678;23.244;2023-03-04T10:27:25;93981.88;;;7.94;nan
9277;BME280;4676;42.678;23.244;2023-03-04T10:29:55;93978.66;;;8.15;nan
9277;BME280;4676;42.678;23.244;2023-03-04T10:32:23;93977.06;;;8.13;nan
9277;BME280;4676;42.678;23.244;2023-03-04T10:34:50;93972.03;;;8.13;nan
9277;BME280;4676;42.678;23.244;2023-03-04T10:37:17;93962.59;;;8.18;nan
9277;BME280;4676;42.678;23.244;2023-03-04T10:39:46;93959.53;;;8.08;nan
9277;BME280;4676;42.678;23.244;2023-03-04T10:42:24;93957.13;;;8.05;nan
9277;BME280;4676;42.678;23.244;2023-03-04T10:44:54;93950.03;;;8.16;nan
9277;BME280;4676;42.678;23.244;2023-03-04T10:47:23;93895.59;;;8.09;nan
9277;BME280;4676;42.678;23.244;2023-03-04T10:49:52;93947.16;;;8.27;nan
9277;BME280;4676;42.678;23.244;2023-03-04T10:52:26;93942.47;;;8.16;nan
9277;BME280;4676;42.678;23.244;2023-03-04T10:54:56;93940.38;;;8.27;nan
9277;BME280;4676;42.678;23.244;2023-03-04T10:57:31;93936.94;;;8.05;nan
9277;BME280;4676;42.678;23.244;2023-03-04T10:59:59;93938.88;;;7.97;nan
9277;BME280;4676;42.678;23.244;2023-03-04T11:02:28;93930.78;;;7.87;nan
9277;BME280;4676;42.678;23.244;2023-03-04T11:05:10;93935.00;;;7.61;nan
9277;BME280;4676;42.678;23.244;2023-03-04T11:07:42;93927.50;;;7.31;nan
9277;BME280;4676;42.678;23.244;2023-03-04T11:10:15;93928.06;;;7.41;nan
9277;BME280;4676;42.678;23.244;2023-03-04T11:12:47;93886.88;;;7.40;nan
9277;BME280;4676;42.678;23.244;2023-03-04T11:15:19;93917.19;;;7.65;nan
9277;BME280;4676;42.678;23.244;2023-03-04T11:17:50;93911.31;;;7.65;nan
9277;BME280;4676;42.678;23.244;2023-03-04T11:20:27;93907.84;;;7.69;nan
9277;BME280;4676;42.678;23.244;2023-03-04T11:22:56;93898.72;;;7.65;nan
9277;BME280;4676;42.678;23.244;2023-03-04T11:25:29;93894.41;;;7.68;nan
9277;BME280;4676;42.678;23.244;2023-03-04T11:27:59;93894.75;;;7.58;nan
9277;BME280;4676;42.678;23.244;2023-03-04T11:30:37;93880.34;;;7.61;nan
9277;BME280;4676;42.678;23.244;2023-03-04T11:33:14;93888.72;;;7.62;nan
9277;BME280;4676;42.678;23.244;2023-03-04T11:35:53;93885.53;;;7.57;nan
9277;BME280;4676;42.678;23.244;2023-03-04T11:38:26;93854.91;;;7.67;nan
9277;BME280;4676;42.678;23.244;2023-03-04T11:40:59;93879.16;;;7.97;nan
9277;BME280;4676;42.678;23.244;2023-03-04T11:43:32;93875.94;;;8.17;nan
9277;BME280;4676;42.678;23.244;2023-03-04T11:46:19;93870.16;;;8.14;nan
9277;BME280;4676;42.678;23.244;2023-03-04T11:49:05;93869.06;;;8.45;nan
9277;BME280;4676;42.678;23.244;2023-03-04T11:51:36;93867.94;;;8.54;nan
9277;BME280;4676;42.678;23.244;2023-03-04T11:54:17;93855.56;;;8.70;nan
9277;BME280;4676;42.678;23.244;2023-03-04T11:56:49;93870.75;;;8.91;nan
9277;BME280;4676;42.678;23.244;2023-03-04T11:59:40;93860.78;;;8.42;nan
9277;BME280;4676;42.678;23.244;2023-03-04T12:02:14;93860.19;;;8.35;nan
9277;BME280;4676;42.678;23.244;2023-03-04T12:04:58;93822.97;;;8.40;nan
9277;BME280;4676;42.678;23.244;2023-03-04T12:07:45;93801.69;;;8.47;nan
9277;BME280;4676;42.678;23.244;2023-03-04T12:10:23;93852.06;;;8.95;nan
9277;BME280;4676;42.678;23.244;2023-03-04T12:13:11;93821.81;;;8.49;nan
9277;BME280;4676;42.678;23.244;2023-03-04T12:15:48;93847.41;;;8.15;nan
9277;BME280;4676;42.678;23.244;2023-03-04T12:18:35;93824.13;;;8.32;nan
9277;BME280;4676;42.678;23.244;2023-03-04T12:21:16;93837.88;;;8.70;nan
9277;BME280;4676;42.678;23.244;2023-03-04T12:24:00;93837.88;;;8.93;nan
9277;BME280;4676;42.678;23.244;2023-03-04T12:26:37;93839.88;;;8.83;nan
9277;BME280;4676;42.678;23.244;2023-03-04T12:29:12;93838.84;;;8.89;nan
9277;BME280;4676;42.678;23.244;2023-03-04T12:31:42;93833.13;;;8.84;nan
9277;BME280;4676;42.678;23.244;2023-03-04T12:34:29;93829.75;;;8.85;nan
9277;BME280;4676;42.678;23.244;2023-03-04T12:37:07;93829.63;;;8.88;nan
9277;BME280;4676;42.678;23.244;2023-03-04T12:39:39;93820.81;;;8.98;nan
9277;BME280;4676;42.678;23.244;2023-03-04T12:42:17;93820.06;;;9.18;nan
9277;BME280;4676;42.678;23.244;2023-03-04T12:44:57;93815.28;;;9.10;nan
9277;BME280;4676;42.678;23.244;2023-03-04T12:47:37;93820.47;;;9.29;nan
9277;BME280;4676;42.678;23.244;2023-03-04T12:50:23;93819.09;;;9.42;nan
9277;BME280;4676;42.678;23.244;2023-03-04T12:53:00;93805.91;;;9.54;nan
9277;BME280;4676;42.678;23.244;2023-03-04T12:55:36;93805.47;;;9.65;nan
9277;BME280;4676;42.678;23.244;2023-03-04T12:58:03;93803.88;;;9.64;nan
9277;BME280;4676;42.678;23.244;2023-03-04T13:00:42;93800.28;;;9.68;nan
9277;BME280;4676;42.678;23.244;2023-03-04T13:03:17;93796.75;;;9.72;nan
9277;BME280;4676;42.678;23.244;2023-03-04T13:08:47;93792.94;;;9.82;nan
9277;BME280;4676;42.678;23.244;2023-03-04T13:11:51;93781.84;;;9.66;nan
9277;BME280;4676;42.678;23.244;2023-03-04T13:14:27;93785.63;;;9.56;nan
9277;BME280;4676;42.678;23.244;2023-03-04T13:16:56;93776.25;;;9.37;nan
9277;BME280;4676;42.678;23.244;2023-03-04T13:19:46;93764.72;;;9.10;nan
9277;BME280;4676;42.678;23.244;2023-03-04T13:22:44;93774.91;;;9.09;nan
9277;BME280;4676;42.678;23.244;2023-03-04T13:25:41;93778.00;;;9.15;nan
9277;BME280;4676;42.678;23.244;2023-03-04T13:28:18;93777.19;;;9.15;nan
9277;BME280;4676;42.678;23.244;2023-03-04T13:31:17;93759.44;;;9.16;nan
9277;BME280;4676;42.678;23.244;2023-03-04T13:39:27;93769.94;;;9.47;nan
9277;BME280;4676;42.678;23.244;2023-03-04T13:41:54;93767.66;;;9.41;nan
9277;BME280;4676;42.678;23.244;2023-03-04T13:44:56;93705.03;;;9.08;nan
9277;BME280;4676;42.678;23.244;2023-03-04T13:47:32;93757.88;;;9.34;nan
9277;BME280;4676;42.678;23.244;2023-03-04T13:50:22;93759.06;;;9.25;nan
9277;BME280;4676;42.678;23.244;2023-03-04T13:52:51;93757.47;;;9.23;nan
9277;BME280;4676;42.678;23.244;2023-03-04T13:55:35;93762.03;;;9.15;nan
9277;BME280;4676;42.678;23.244;2023-03-04T13:58:14;93752.09;;;9.10;nan
9277;BME280;4676;42.678;23.244;2023-03-04T14:00:48;93753.75;;;9.11;nan
9277;BME280;4676;42.678;23.244;2023-03-04T14:03:20;93743.94;;;9.03;nan
9277;BME280;4676;42.678;23.244;2023-03-04T14:06:07;93751.16;;;9.13;nan
9277;BME280;4676;42.678;23.244;2023-03-04T14:08:39;93751.31;;;9.08;nan
9277;BME280;4676;42.678;23.244;2023-03-04T14:11:11;93746.75;;;8.96;nan